Geyserville, CA (95441)

2:09 PM PDT on May 29, 2017 (GMT -0700)
Canyon Rd. | | Change Station

Elev 459 ft 38.70 °N, 122.94 °W | Updated 2 minutes ago

Clear
Clear
78.3 °F
Feels Like 80 °F
N
1.0
Wind Variable Wind from ESE
Gusts 6.0 mph

Today
High -- | Low -- °F
--% Chance of Precip.
Yesterday
High -- | Low -- °F
Precip. -- in
Pressure 29.91 in
Visibility 10.0 miles
Clouds Few 4000 ft
Heat Index 80 °F
Dew Point 60 °F
Humidity 54%
Rainfall 0.00 in
Snow Depth Not available.
5:49 AM 8:28 PM
Waxing Crescent, 22% visible
METAR KSTS 292053Z COR 17008KT 10SM FEW040 23/12 A2993 RMK AO2 SLP128 T02280122 58013
Pressure 29.91 in
Visibility 10.0 miles
Clouds Few 4000 ft
Heat Index 80 °F
Dew Point 60 °F
Humidity 54%
Rainfall 0.00 in
Snow Depth Not available.
5:49 AM 8:28 PM
Waxing Crescent, 22% visible
METAR KSTS 292053Z COR 17008KT 10SM FEW040 23/12 A2993 RMK AO2 SLP128 T02280122 58013

Get Severe Weather Alerts

Thanks for signing up!

Be on the lookout for a verification email in your inbox.

You'll start receiving the daily forecast at 6 AM.

×

10-Day Weather Forecast

Almanac

Astronomy

May. 29, 2017 Rise Set
Actual Time
Civil Twilight
Nautical Twilight
Astronomical Twilight
Moon
Length of Visible Light
Length of Day
Tomorrow will be .
, % of the Moon is Illuminated

Today's Extremes

State Highs State Lows

Community

WunderPhotos

Category 6

Welcome to Category 6. This is the collective home for Weather Underground's featured writeups by Dr. Jeff Masters (right), Bob Henson (left), Chris Burt, and other regular contributors.

Nearby

Air Quality

  Air Quality AQ Index Pollutant
Not available.

Snow Depth

Station Depth Elevation

Earthquake Activity

City Distance Mag. Time & Date
Minimum magnitude displayed is 2.5.

Coastal Water Temperatures

Place Temperature

Stations

Nearby Weather Stations

Station Location Temp. Windchill Dew Point Humidity Wind Precip. Elev Updated Type
                   

Watches & Warnings

There are currently no watches in effect.